Time;durP1;ratioP1;P1;durP2;ratioP2;P2;SDS_P1;SDS_P2;PMS_P1;PMS_P2;Temp;Humidity;BMP_temperature;BMP_pressure;BME280_temperature;BME280_humidity;BME280_pressure;Samples;Min_cycle;Max_cycle;Signal;HPM_P1;HPM_P2
2024/03/25 00:00:25;;;;;;;3.93;1.90;;;6.90;99.90;;;;;;5016779;28;20469;-64
2024/03/25 00:02:52;;;;;;;4.10;1.80;;;6.90;99.90;;;;;;5015886;28;20483;-65
2024/03/25 00:05:22;;;;;;;4.70;2.40;;;6.90;99.90;;;;;;5010690;28;21169;-64
2024/03/25 00:07:50;;;;;;;4.77;2.13;;;6.90;99.90;;;;;;5011881;28;21298;-64
2024/03/25 00:10:20;;;;;;;4.17;2.33;;;6.90;99.90;;;;;;5016008;28;20494;-65
2024/03/25 00:12:47;;;;;;;6.40;2.67;;;6.90;99.90;;;;;;5038439;28;20506;-65
2024/03/25 00:15:13;;;;;;;5.27;2.60;;;6.90;99.90;;;;;;5042512;28;20542;-65
2024/03/25 00:17:42;;;;;;;3.70;2.37;;;6.90;99.90;;;;;;5039227;28;20513;-65
2024/03/25 00:20:09;;;;;;;4.83;2.70;;;6.90;99.90;;;;;;5039144;28;20483;-65
2024/03/25 00:22:36;;;;;;;4.53;2.03;;;6.90;99.90;;;;;;5023836;28;20491;-65
2024/03/25 00:25:02;;;;;;;3.57;2.20;;;6.90;99.90;;;;;;5023490;28;20475;-64
2024/03/25 00:27:31;;;;;;;5.20;2.37;;;6.90;99.90;;;;;;5021252;28;20486;-65
2024/03/25 00:29:57;;;;;;;2.87;2.40;;;6.90;99.90;;;;;;5016597;28;20884;-65
2024/03/25 00:32:24;;;;;;;4.03;2.13;;;6.90;99.90;;;;;;5020877;28;20491;-65
2024/03/25 00:34:50;;;;;;;5.47;2.60;;;6.90;99.90;;;;;;5020638;28;20464;-65
2024/03/25 00:37:17;;;;;;;4.47;1.97;;;6.90;99.90;;;;;;5018416;28;20471;-65
2024/03/25 00:39:43;;;;;;;3.10;2.13;;;6.90;99.90;;;;;;5018462;28;21066;-65
2024/03/25 00:42:10;;;;;;;6.10;2.10;;;6.80;99.90;;;;;;5022182;28;20823;-65
2024/03/25 00:44:38;;;;;;;4.33;1.97;;;6.80;99.90;;;;;;5021935;28;20503;-65
2024/03/25 00:47:05;;;;;;;4.23;1.97;;;6.90;99.90;;;;;;5022258;28;20455;-65
2024/03/25 00:49:31;;;;;;;6.47;2.20;;;6.90;99.90;;;;;;5021291;28;20475;-65
2024/03/25 00:51:58;;;;;;;5.20;2.43;;;6.90;99.90;;;;;;5020988;28;20491;-64
2024/03/25 00:54:24;;;;;;;5.93;2.10;;;6.90;99.90;;;;;;5020397;28;20459;-65
2024/03/25 00:56:53;;;;;;;6.37;2.20;;;6.90;99.90;;;;;;5021627;28;20471;-65
2024/03/25 00:59:19;;;;;;;3.87;2.10;;;7.00;99.90;;;;;;5018277;28;20475;-65
2024/03/25 01:01:47;;;;;;;4.73;2.10;;;6.90;99.90;;;;;;5035339;28;20532;-65
2024/03/25 01:04:13;;;;;;;5.90;2.63;;;6.80;99.90;;;;;;5037993;28;21659;-65
2024/03/25 01:06:41;;;;;;;3.90;2.60;;;6.80;99.90;;;;;;5039502;28;21011;-65
2024/03/25 01:09:07;;;;;;;4.90;2.27;;;6.80;99.90;;;;;;5034729;28;20478;-65
2024/03/25 01:11:34;;;;;;;4.23;2.20;;;6.80;99.90;;;;;;5034287;28;20489;-65
2024/03/25 01:14:00;;;;;;;4.83;2.40;;;6.80;99.90;;;;;;5034980;28;20497;-65
2024/03/25 01:16:27;;;;;;;5.03;2.23;;;6.80;99.90;;;;;;5041008;28;20463;-65
2024/03/25 01:18:55;;;;;;;5.20;2.80;;;6.80;99.90;;;;;;5037934;28;20497;-65
2024/03/25 01:21:22;;;;;;;4.83;2.80;;;6.80;99.90;;;;;;5024739;28;20878;-65
2024/03/25 01:23:48;;;;;;;6.40;3.10;;;6.80;99.90;;;;;;5020358;28;20494;-65
2024/03/25 01:26:15;;;;;;;5.40;2.50;;;6.80;99.90;;;;;;5019641;28;20851;-65
2024/03/25 01:28:41;;;;;;;6.93;3.13;;;6.70;99.90;;;;;;5020618;28;20991;-65
2024/03/25 01:31:08;;;;;;;5.80;2.80;;;6.70;99.90;;;;;;5017565;28;20494;-65
2024/03/25 01:33:34;;;;;;;7.43;3.73;;;6.70;99.90;;;;;;5014470;28;21244;-65
2024/03/25 01:36:03;;;;;;;5.43;3.07;;;6.80;99.90;;;;;;5019851;28;20463;-65
2024/03/25 01:38:29;;;;;;;4.67;2.83;;;6.70;99.90;;;;;;5016801;28;20483;-65
2024/03/25 01:40:57;;;;;;;4.87;2.93;;;6.70;99.90;;;;;;5018407;28;20545;-65
2024/03/25 01:43:23;;;;;;;6.47;3.20;;;6.70;99.90;;;;;;5020391;28;21056;-65
2024/03/25 01:45:52;;;;;;;6.17;3.00;;;6.70;99.90;;;;;;5023349;28;20467;-65
2024/03/25 01:48:18;;;;;;;5.87;2.90;;;6.70;99.90;;;;;;5020804;28;20498;-64
2024/03/25 01:50:46;;;;;;;5.53;2.50;;;6.70;99.90;;;;;;5023260;28;20463;-64
2024/03/25 01:53:14;;;;;;;5.23;2.90;;;6.70;99.90;;;;;;5018960;28;20487;-64
2024/03/25 01:55:42;;;;;;;4.43;2.90;;;6.60;99.90;;;;;;5022501;28;20840;-64
2024/03/25 01:58:08;;;;;;;8.93;3.40;;;6.60;99.90;;;;;;5022865;28;20471;-64
2024/03/25 02:00:37;;;;;;;6.73;2.80;;;6.70;99.90;;;;;;5020082;28;20488;-66
2024/03/25 02:03:03;;;;;;;4.90;2.77;;;6.70;99.90;;;;;;5018024;28;20491;-65
2024/03/25 02:05:30;;;;;;;7.93;3.70;;;6.70;99.90;;;;;;5022659;28;20538;-65
2024/03/25 02:07:58;;;;;;;4.20;3.10;;;6.70;99.90;;;;;;5018869;28;20578;-65
2024/03/25 02:10:26;;;;;;;4.90;2.87;;;6.60;99.90;;;;;;5021454;28;20471;-64
2024/03/25 02:12:52;;;;;;;6.23;3.80;;;6.70;99.90;;;;;;5020874;28;20492;-64
2024/03/25 02:15:20;;;;;;;5.03;3.30;;;6.70;99.90;;;;;;5019688;28;20475;-66
2024/03/25 02:17:46;;;;;;;5.80;3.53;;;6.70;99.90;;;;;;5022232;28;20468;-65
2024/03/25 02:20:15;;;;;;;4.30;2.57;;;6.70;99.90;;;;;;5020329;28;20479;-65
2024/03/25 02:22:42;;;;;;;4.10;2.70;;;6.70;99.90;;;;;;5022556;28;20479;-65
2024/03/25 02:25:10;;;;;;;6.23;2.27;;;6.60;99.90;;;;;;5021450;28;20468;-64
2024/03/25 02:27:38;;;;;;;3.80;2.50;;;6.60;99.90;;;;;;5020536;28;20467;-65
2024/03/25 02:30:07;;;;;;;3.53;2.73;;;6.60;99.90;;;;;;5020342;28;20475;-64
2024/03/25 02:32:33;;;;;;;4.47;2.57;;;6.60;99.90;;;;;;5024590;28;20487;-65
2024/03/25 02:35:01;;;;;;;3.83;2.03;;;6.50;99.90;;;;;;5021748;28;20899;-65
2024/03/25 02:37:27;;;;;;;4.03;2.00;;;6.50;99.90;;;;;;5020254;28;20541;-65
2024/03/25 02:39:58;;;;;;;3.50;2.20;;;6.50;99.90;;;;;;5022028;28;20476;-65
2024/03/25 02:42:26;;;;;;;3.27;2.23;;;6.40;99.90;;;;;;5020244;28;20843;-65
2024/03/25 02:44:55;;;;;;;3.03;2.07;;;6.40;99.90;;;;;;5019989;28;20918;-65
2024/03/25 02:47:21;;;;;;;6.23;2.77;;;6.40;99.90;;;;;;5019367;28;20510;-64
2024/03/25 02:49:48;;;;;;;2.63;2.20;;;6.40;99.90;;;;;;5022838;28;21000;-65
2024/03/25 02:52:14;;;;;;;3.50;2.20;;;6.30;99.90;;;;;;5020380;28;20495;-64
2024/03/25 02:54:41;;;;;;;2.80;1.90;;;6.30;99.90;;;;;;5022191;28;20471;-64
2024/03/25 02:57:07;;;;;;;5.63;2.60;;;6.30;99.90;;;;;;5021321;28;20478;-65
2024/03/25 02:59:34;;;;;;;2.40;2.13;;;6.30;99.90;;;;;;5016029;28;20996;-64
2024/03/25 03:02:02;;;;;;;2.93;2.40;;;6.30;99.90;;;;;;5037465;28;20483;-64
2024/03/25 03:04:29;;;;;;;3.63;2.47;;;6.30;99.90;;;;;;5031855;28;20483;-64
2024/03/25 03:06:56;;;;;;;3.80;2.33;;;6.30;99.90;;;;;;5031828;28;20469;-65
2024/03/25 03:09:23;;;;;;;4.73;2.40;;;6.30;99.90;;;;;;5037113;28;20462;-64
2024/03/25 03:11:49;;;;;;;7.97;2.40;;;6.30;99.90;;;;;;5041763;28;20491;-65
2024/03/25 03:14:16;;;;;;;5.50;2.20;;;6.30;99.90;;;;;;5035554;28;20482;-64
2024/03/25 03:16:42;;;;;;;5.13;2.23;;;6.30;99.90;;;;;;5040427;28;20474;-64
2024/03/25 03:19:11;;;;;;;3.77;2.60;;;6.40;99.90;;;;;;5036497;28;20998;-64
2024/03/25 03:21:37;;;;;;;4.60;2.00;;;6.30;99.90;;;;;;5037724;28;20482;-64
2024/03/25 03:24:04;;;;;;;2.67;1.90;;;6.30;99.90;;;;;;5039832;28;20465;-64
2024/03/25 03:26:31;;;;;;;8.20;2.47;;;6.30;99.90;;;;;;5035510;28;20471;-64
2024/03/25 03:28:58;;;;;;;2.50;2.03;;;6.30;99.90;;;;;;5031313;28;20501;-64
2024/03/25 03:31:28;;;;;;;4.80;2.00;;;6.30;99.90;;;;;;5039922;28;20482;-64
2024/03/25 03:33:54;;;;;;;5.00;2.10;;;6.30;99.90;;;;;;5040498;28;20463;-64
2024/03/25 03:36:23;;;;;;;3.83;2.10;;;6.30;99.90;;;;;;5032335;28;20524;-64
2024/03/25 03:38:50;;;;;;;3.20;2.27;;;6.30;99.90;;;;;;5041570;28;20462;-64
2024/03/25 03:41:18;;;;;;;4.17;1.90;;;6.30;99.90;;;;;;5032812;28;20552;-64
2024/03/25 03:43:44;;;;;;;4.00;1.70;;;6.30;99.90;;;;;;5037950;28;20902;-64
2024/03/25 03:46:11;;;;;;;4.70;1.80;;;6.30;99.90;;;;;;5038513;28;20475;-64
2024/03/25 03:48:38;;;;;;;3.87;1.70;;;6.30;99.90;;;;;;5045983;28;20574;-64
2024/03/25 03:51:05;;;;;;;2.63;1.63;;;6.30;99.90;;;;;;5044966;28;20508;-65
2024/03/25 03:53:33;;;;;;;6.63;1.90;;;6.30;99.90;;;;;;5044792;28;20482;-65
2024/03/25 03:56:02;;;;;;;4.17;1.73;;;6.30;99.90;;;;;;5040740;28;20493;-65
2024/03/25 03:58:28;;;;;;;3.83;2.50;;;6.30;99.90;;;;;;5035462;28;20477;-65
2024/03/25 04:00:55;;;;;;;4.10;2.00;;;6.30;99.90;;;;;;5036386;28;21042;-65
2024/03/25 04:03:22;;;;;;;3.10;1.70;;;6.30;99.90;;;;;;5041246;28;20490;-65
2024/03/25 04:05:49;;;;;;;2.40;1.53;;;6.30;99.90;;;;;;5036425;28;20470;-65
2024/03/25 04:08:15;;;;;;;4.33;1.90;;;6.20;99.90;;;;;;5042021;28;20505;-65
2024/03/25 04:10:45;;;;;;;10.50;2.30;;;6.20;99.90;;;;;;5045260;28;20471;-65
2024/03/25 04:13:12;;;;;;;6.20;1.87;;;6.20;99.90;;;;;;5041236;28;20491;-65
2024/03/25 04:15:40;;;;;;;2.70;2.07;;;6.20;99.90;;;;;;5043545;28;20478;-66
2024/03/25 04:18:07;;;;;;;5.10;2.57;;;6.20;99.90;;;;;;5043060;28;20477;-65
2024/03/25 04:20:37;;;;;;;2.30;1.87;;;6.20;99.90;;;;;;5036595;28;20495;-65
2024/03/25 04:23:03;;;;;;;4.10;2.10;;;6.20;99.90;;;;;;5045287;28;20493;-65
2024/03/25 04:25:32;;;;;;;2.27;1.50;;;6.20;99.90;;;;;;5038443;28;20559;-65
2024/03/25 04:28:00;;;;;;;2.60;1.90;;;6.20;99.90;;;;;;5042866;28;20474;-65
2024/03/25 04:30:27;;;;;;;2.37;1.53;;;6.20;99.90;;;;;;5044099;28;20478;-65
2024/03/25 04:32:54;;;;;;;1.70;1.60;;;6.20;99.90;;;;;;5044315;28;20482;-65
2024/03/25 04:35:21;;;;;;;2.53;1.70;;;6.20;99.90;;;;;;5043842;28;20485;-65
